Time;durP1;ratioP1;P1;durP2;ratioP2;P2;SDS_P1;SDS_P2;PMS_P1;PMS_P2;Temp;Humidity;BMP_temperature;BMP_pressure;BME280_temperature;BME280_humidity;BME280_pressure;Samples;Min_cycle;Max_cycle;Signal;HPM_P1;HPM_P2
2020/12/19 00:01:53;;;;;;;16.05;12.18;;;9.60;99.90;;;;;;5088683;28;20774;-76
2020/12/19 00:04:19;;;;;;;16.67;12.85;;;9.50;99.90;;;;;;5098025;28;20426;-76
2020/12/19 00:06:46;;;;;;;17.73;13.50;;;9.50;99.90;;;;;;5103420;28;20469;-75
2020/12/19 00:09:13;;;;;;;18.42;13.35;;;9.50;99.90;;;;;;5091119;28;20442;-76
2020/12/19 00:11:42;;;;;;;18.50;13.40;;;9.40;99.90;;;;;;5099000;28;20429;-75
2020/12/19 00:14:08;;;;;;;19.20;13.32;;;9.40;99.90;;;;;;5083104;28;20495;-75
2020/12/19 00:16:35;;;;;;;17.38;13.18;;;9.40;99.90;;;;;;5106277;28;20844;-76
2020/12/19 00:19:05;;;;;;;18.25;13.55;;;9.40;99.90;;;;;;5094025;28;20421;-75
2020/12/19 00:21:35;;;;;;;17.97;13.70;;;9.40;99.90;;;;;;5090433;28;20924;-76
2020/12/19 00:24:02;;;;;;;21.02;13.93;;;9.30;99.90;;;;;;5096407;28;20426;-76
2020/12/19 00:26:34;;;;;;;19.67;14.70;;;9.30;99.90;;;;;;5088438;28;20410;-76
2020/12/19 00:29:01;;;;;;;20.70;14.05;;;9.30;99.90;;;;;;5086740;28;20428;-76
2020/12/19 00:31:27;;;;;;;20.25;14.55;;;9.30;99.90;;;;;;5108320;28;20408;-77
2020/12/19 00:33:53;;;;;;;20.50;14.82;;;9.30;99.90;;;;;;5096481;28;20432;-76
2020/12/19 00:36:20;;;;;;;20.00;15.00;;;9.20;99.90;;;;;;5087931;28;20405;-76
2020/12/19 00:38:46;;;;;;;20.05;15.20;;;9.20;99.90;;;;;;5088904;28;20425;-76
2020/12/19 00:41:20;;;;;;;21.50;15.55;;;9.20;99.90;;;;;;5096943;28;21281;-77
2020/12/19 00:43:48;;;;;;;22.33;15.75;;;9.20;99.90;;;;;;5095350;28;20891;-76
2020/12/19 00:46:15;;;;;;;21.98;15.70;;;9.20;99.90;;;;;;5089632;28;20420;-76
2020/12/19 00:48:43;;;;;;;22.33;16.10;;;9.20;99.90;;;;;;5097601;28;20418;-75
2020/12/19 00:51:12;;;;;;;24.75;16.40;;;9.20;99.90;;;;;;5073354;28;20906;-75
2020/12/19 00:53:38;;;;;;;22.97;16.23;;;9.20;99.90;;;;;;5082446;28;20435;-76
2020/12/19 00:56:05;;;;;;;20.60;16.05;;;9.20;99.90;;;;;;5079314;28;20499;-77
2020/12/19 00:58:31;;;;;;;23.45;16.25;;;9.20;99.90;;;;;;5090102;28;20439;-76
2020/12/19 01:00:58;;;;;;;20.70;15.77;;;9.10;99.90;;;;;;5087760;28;20421;-76
2020/12/19 01:03:25;;;;;;;23.98;16.27;;;9.10;99.90;;;;;;5090358;28;20913;-76
2020/12/19 01:05:51;;;;;;;24.52;16.95;;;9.10;99.90;;;;;;5104312;28;20463;-75
2020/12/19 01:08:17;;;;;;;22.48;16.48;;;9.10;99.90;;;;;;5103570;28;20425;-74
2020/12/19 01:10:44;;;;;;;23.90;16.33;;;9.10;99.90;;;;;;5077763;28;20495;-76
2020/12/19 01:13:10;;;;;;;23.53;16.37;;;9.10;99.90;;;;;;5092233;28;20437;-77
2020/12/19 01:15:36;;;;;;;24.40;16.73;;;9.10;99.90;;;;;;5106606;28;20484;-76
2020/12/19 01:18:04;;;;;;;22.92;16.52;;;9.10;99.90;;;;;;5091141;28;20483;-75
2020/12/19 01:20:30;;;;;;;23.08;16.13;;;9.10;99.90;;;;;;5097993;28;20416;-75
2020/12/19 01:22:56;;;;;;;23.02;17.13;;;9.10;99.90;;;;;;5085690;28;20420;-77
2020/12/19 01:25:23;;;;;;;23.58;16.83;;;9.10;99.90;;;;;;5094309;28;20419;-75
2020/12/19 01:27:49;;;;;;;22.63;16.67;;;9.10;99.90;;;;;;5087267;28;20436;-76
2020/12/19 01:30:15;;;;;;;24.95;17.10;;;9.10;99.90;;;;;;5087491;28;20908;-77
2020/12/19 01:32:42;;;;;;;25.25;16.90;;;9.10;99.90;;;;;;5081056;28;20416;-75
2020/12/19 01:35:09;;;;;;;21.95;16.85;;;9.10;99.90;;;;;;5081557;28;20430;-76
2020/12/19 01:37:35;;;;;;;25.42;17.83;;;9.00;99.90;;;;;;5088728;28;20412;-76
2020/12/19 01:40:02;;;;;;;25.53;17.37;;;9.00;99.90;;;;;;5107196;28;20420;-76
2020/12/19 01:42:29;;;;;;;25.27;17.90;;;9.00;99.90;;;;;;5088533;28;20515;-76
2020/12/19 01:44:55;;;;;;;24.65;17.20;;;9.00;99.90;;;;;;5072207;28;20936;-76
2020/12/19 01:47:22;;;;;;;27.13;18.43;;;9.00;99.90;;;;;;5091287;28;20753;-77
2020/12/19 01:49:49;;;;;;;26.88;16.92;;;9.00;99.90;;;;;;5083824;28;20217;-77
2020/12/19 01:52:20;;;;;;;24.73;15.48;;;8.70;99.90;;;;;;5092704;28;20212;-77
2020/12/19 01:54:48;;;;;;;27.15;19.08;;;8.40;99.90;;;;;;5088950;28;20913;-75
2020/12/19 01:57:17;;;;;;;27.00;19.20;;;8.60;99.90;;;;;;5087824;28;20518;-76
2020/12/19 01:59:44;;;;;;;28.17;19.55;;;8.70;99.90;;;;;;5093351;28;20890;-76
2020/12/19 02:02:11;;;;;;;26.13;18.70;;;8.80;99.90;;;;;;5090853;28;20415;-76
2020/12/19 02:04:37;;;;;;;27.38;17.05;;;8.80;99.90;;;;;;5074675;28;20202;-76
2020/12/19 02:07:06;;;;;;;27.85;19.00;;;8.50;99.90;;;;;;5103718;28;20433;-76
2020/12/19 02:09:37;;;;;;;28.67;19.52;;;8.60;99.90;;;;;;5094258;28;20432;-76
2020/12/19 02:12:05;;;;;;;27.52;19.63;;;8.70;99.90;;;;;;5097763;28;20412;-76
2020/12/19 02:14:32;;;;;;;27.27;19.13;;;8.70;99.90;;;;;;5095339;28;20779;-76
2020/12/19 02:17:00;;;;;;;27.00;18.70;;;8.80;99.90;;;;;;5104909;28;20424;-76
2020/12/19 02:19:27;;;;;;;26.42;18.35;;;8.80;99.90;;;;;;5101807;28;21388;-76
2020/12/19 02:21:54;;;;;;;27.98;18.95;;;8.80;99.90;;;;;;5092755;28;20425;-76
2020/12/19 02:24:22;;;;;;;28.75;18.98;;;8.80;99.90;;;;;;5096011;28;22324;-77
2020/12/19 02:26:49;;;;;;;29.25;18.85;;;8.80;99.90;;;;;;5072436;28;20429;-76
2020/12/19 02:29:16;;;;;;;27.23;18.02;;;8.80;99.90;;;;;;5074608;28;20422;-76
2020/12/19 02:31:43;;;;;;;25.25;18.08;;;8.80;99.90;;;;;;5076568;28;20414;-76
2020/12/19 02:34:09;;;;;;;25.83;18.48;;;8.80;99.90;;;;;;5092383;28;20425;-76
2020/12/19 02:36:36;;;;;;;26.88;18.15;;;8.80;99.90;;;;;;5072073;28;20425;-75
2020/12/19 02:39:03;;;;;;;28.60;18.20;;;8.80;99.90;;;;;;5074053;28;20422;-76
2020/12/19 02:41:30;;;;;;;25.95;17.75;;;8.80;99.90;;;;;;5082161;28;20439;-76
2020/12/19 02:43:57;;;;;;;28.55;18.27;;;8.80;99.90;;;;;;5095887;28;21218;-76
2020/12/19 02:46:24;;;;;;;27.00;18.10;;;8.80;99.90;;;;;;5098952;28;20406;-76
2020/12/19 02:48:53;;;;;;;26.97;18.33;;;8.80;99.90;;;;;;5101518;28;20776;-76
2020/12/19 02:51:20;;;;;;;25.42;18.00;;;8.80;99.90;;;;;;5109062;28;20817;-76
2020/12/19 02:53:46;;;;;;;25.20;17.80;;;8.80;99.90;;;;;;5091406;28;20828;-77
2020/12/19 02:56:13;;;;;;;26.40;17.73;;;8.80;99.90;;;;;;5071225;28;20433;-76
2020/12/19 02:58:59;;;;;;;27.37;17.87;;;8.80;99.90;;;;;;5087936;28;20476;-77
2020/12/19 03:01:29;;;;;;;26.42;18.35;;;8.80;99.90;;;;;;5103901;28;20448;-75
2020/12/19 03:03:55;;;;;;;24.17;17.60;;;8.80;99.90;;;;;;5072485;28;20425;-77
2020/12/19 03:06:22;;;;;;;24.17;17.70;;;8.70;99.90;;;;;;5089886;28;20428;-76
2020/12/19 03:08:48;;;;;;;24.48;18.35;;;8.70;99.90;;;;;;5082291;28;20473;-77
2020/12/19 03:11:15;;;;;;;25.15;17.83;;;8.70;99.90;;;;;;5088713;28;20412;-77
2020/12/19 03:13:42;;;;;;;25.38;18.33;;;8.70;99.90;;;;;;5092275;28;20414;-77
2020/12/19 03:16:09;;;;;;;26.17;18.27;;;8.70;99.90;;;;;;5079657;28;20418;-76
2020/12/19 03:18:35;;;;;;;25.10;18.30;;;8.70;99.90;;;;;;5079829;28;20427;-75
2020/12/19 03:21:01;;;;;;;26.55;18.15;;;8.70;99.90;;;;;;5102801;28;20426;-76
2020/12/19 03:23:28;;;;;;;24.67;18.15;;;8.70;99.90;;;;;;5090624;28;20486;-74
2020/12/19 03:25:55;;;;;;;26.45;18.77;;;8.60;99.90;;;;;;5089600;28;20421;-75
2020/12/19 03:28:21;;;;;;;25.60;18.30;;;8.60;99.90;;;;;;5093757;28;20425;-76
2020/12/19 03:30:48;;;;;;;28.80;19.47;;;8.60;99.90;;;;;;5084878;28;20422;-76
2020/12/19 03:33:15;;;;;;;28.00;18.80;;;8.60;99.90;;;;;;5098455;28;20433;-76
2020/12/19 03:35:41;;;;;;;28.63;19.02;;;8.60;99.90;;;;;;5089523;28;20425;-74
2020/12/19 03:38:08;;;;;;;27.90;18.95;;;8.60;99.90;;;;;;5091732;28;20429;-75
2020/12/19 03:40:35;;;;;;;28.70;19.33;;;8.60;99.90;;;;;;5091064;28;20945;-75
2020/12/19 03:43:01;;;;;;;27.83;19.17;;;8.50;99.90;;;;;;5094019;28;20429;-76
2020/12/19 03:45:28;;;;;;;28.50;19.20;;;8.50;99.90;;;;;;5089131;28;20406;-75
2020/12/19 03:47:55;;;;;;;29.17;19.40;;;8.50;99.90;;;;;;5090875;28;20423;-75
2020/12/19 03:50:21;;;;;;;27.15;19.23;;;8.50;99.90;;;;;;5070523;28;20799;-75
2020/12/19 03:52:48;;;;;;;27.15;18.67;;;8.50;99.90;;;;;;5084012;28;20476;-76
2020/12/19 03:55:14;;;;;;;28.13;18.83;;;8.50;99.90;;;;;;5080607;28;20441;-75
2020/12/19 03:57:41;;;;;;;28.00;19.27;;;8.40;99.90;;;;;;5083986;28;20433;-75
2020/12/19 04:00:08;;;;;;;29.88;20.13;;;8.40;99.90;;;;;;5099339;28;20416;-76
2020/12/19 04:02:38;;;;;;;28.80;19.15;;;8.40;99.90;;;;;;5096575;28;20590;-75
2020/12/19 04:05:11;;;;;;;28.45;19.15;;;8.40;99.90;;;;;;5097744;28;20415;-73
2020/12/19 04:07:38;;;;;;;29.35;19.27;;;8.40;99.90;;;;;;5066685;28;20800;-75
2020/12/19 04:10:06;;;;;;;27.77;19.40;;;8.40;99.90;;;;;;5068393;28;20826;-75
2020/12/19 04:12:32;;;;;;;28.85;19.30;;;8.40;99.90;;;;;;5066666;28;20426;-77
2020/12/19 04:14:58;;;;;;;27.38;18.77;;;8.40;99.90;;;;;;5088640;28;20443;-76
2020/12/19 04:17:25;;;;;;;27.70;18.67;;;8.40;99.90;;;;;;5083887;28;20432;-76
2020/12/19 04:19:51;;;;;;;28.52;19.10;;;8.40;99.90;;;;;;5070742;28;20423;-74
2020/12/19 04:22:19;;;;;;;30.08;19.92;;;8.40;99.90;;;;;;5072423;28;20999;-75
2020/12/19 04:24:45;;;;;;;28.57;19.60;;;8.40;99.90;;;;;;5074773;28;20427;-76
2020/12/19 04:27:11;;;;;;;27.52;18.88;;;8.30;99.90;;;;;;5069136;28;20423;-75
2020/12/19 04:29:37;;;;;;;28.42;18.73;;;8.30;99.90;;;;;;5071745;28;20729;-75
2020/12/19 04:32:04;;;;;;;26.27;18.13;;;8.30;99.90;;;;;;5069790;28;20408;-75
2020/12/19 04:34:30;;;;;;;27.88;18.75;;;8.30;99.90;;;;;;5071574;28;20426;-75
2020/12/19 04:36:56;;;;;;;27.08;18.40;;;8.30;99.90;;;;;;5088347;28;20792;-76
2020/12/19 04:39:24;;;;;;;26.05;18.42;;;8.30;99.90;;;;;;5087136;28;20893;-74
2020/12/19 04:41:50;;;;;;;25.65;17.88;;;8.30;99.90;;;;;;5088118;28;20946;-76
2020/12/19 04:44:19;;;;;;;24.38;17.67;;;8.40;99.90;;;;;;5074367;28;20423;-76
2020/12/19 04:46:46;;;;;;;26.00;17.70;;;8.40;99.90;;;;;;5079132;28;20462;-76
2020/12/19 04:49:12;;;;;;;25.02;17.88;;;8.40;99.90;;;;;;5075135;28;20426;-75
2020/12/19 04:51:39;;;;;;;25.25;17.40;;;8.40;99.90;;;;;;5086288;28;21009;-76
2020/12/19 04:54:07;;;;;;;24.73;17.95;;;8.50;99.90;;;;;;5083415;28;20425;-76
2020/12/19 04:56:35;;;;;;;25.05;17.50;;;8.50;99.90;;;;;;5089656;28;20456;-75
2020/12/19 04:59:02;;;;;;;24.50;17.50;;;8.50;99.90;;;;;;5081599;28;20421;-75
2020/12/19 05:01:29;;;;;;;26.23;17.33;;;8.60;99.90;;;;;;5080408;28;20910;-75
2020/12/19 05:03:56;;;;;;;22.35;15.30;;;8.60;99.90;;;;;;5080771;28;20206;-76
2020/12/19 05:06:24;;;;;;;25.40;15.25;;;8.30;99.90;;;;;;5089535;28;20197;-77
2020/12/19 05:08:50;;;;;;;25.45;17.30;;;8.10;99.90;;;;;;5077914;28;20427;-76
2020/12/19 05:11:18;;;;;;;23.07;16.13;;;8.20;99.90;;;;;;5067663;28;20526;-76
2020/12/19 05:13:46;;;;;;;23.05;16.48;;;8.40;99.90;;;;;;5071843;28;20903;-77
2020/12/19 05:16:15;;;;;;;25.35;16.45;;;8.50;99.90;;;;;;5073955;28;20428;-77
2020/12/19 05:18:43;;;;;;;23.25;16.48;;;8.60;99.90;;;;;;5076256;28;20431;-77
2020/12/19 05:21:11;;;;;;;27.20;16.98;;;8.70;99.90;;;;;;5087908;28;20776;-77
2020/12/19 05:23:38;;;;;;;24.63;16.63;;;8.70;99.90;;;;;;5082719;28;20465;-77
2020/12/19 05:26:07;;;;;;;22.23;16.25;;;8.80;99.90;;;;;;5071075;28;20431;-77
2020/12/19 05:28:34;;;;;;;22.90;16.23;;;8.80;99.90;;;;;;5070300;28;20427;-77
2020/12/19 05:31:01;;;;;;;20.30;15.30;;;8.80;99.90;;;;;;5074102;28;20546;-76
2020/12/19 05:33:33;;;;;;;22.60;15.70;;;8.80;99.90;;;;;;5087221;28;20433;-76
2020/12/19 05:36:00;;;;;;;22.55;15.90;;;8.80;99.90;;;;;;5079243;28;20468;-75
2020/12/19 05:38:31;;;;;;;22.05;15.30;;;8.80;99.90;;;;;;5068461;28;20485;-77
2020/12/19 05:40:58;;;;;;;24.17;16.05;;;8.80;99.90;;;;;;5068416;28;20419;-75
2020/12/19 05:43:25;;;;;;;22.53;15.73;;;8.80;99.90;;;;;;5082548;28;20488;-75
2020/12/19 05:45:51;;;;;;;22.65;15.55;;;8.80;99.90;;;;;;5070040;28;20780;-76
2020/12/19 05:48:18;;;;;;;23.60;16.60;;;8.80;99.90;;;;;;5070082;28;20461;-75
2020/12/19 05:50:45;;;;;;;22.95;15.95;;;8.80;99.90;;;;;;5068784;28;20930;-76
2020/12/19 05:53:13;;;;;;;22.33;15.90;;;8.80;99.90;;;;;;5082384;28;20435;-76
2020/12/19 05:55:39;;;;;;;22.80;15.50;;;8.90;99.90;;;;;;5085455;28;20413;-77
2020/12/19 05:58:06;;;;;;;22.70;16.15;;;8.90;99.90;;;;;;5085140;28;20418;-75
2020/12/19 06:00:33;;;;;;;24.25;16.10;;;8.90;99.90;;;;;;5082073;28;22281;-76
2020/12/19 06:03:03;;;;;;;21.70;15.60;;;8.90;99.90;;;;;;5085037;28;20432;-76
2020/12/19 06:05:32;;;;;;;22.17;15.93;;;8.90;99.90;;;;;;5086304;28;20421;-74
2020/12/19 06:07:59;;;;;;;24.50;15.75;;;8.80;99.90;;;;;;5097917;28;20448;-74
2020/12/19 06:10:26;;;;;;;21.95;15.40;;;8.90;99.90;;;;;;5087672;28;20461;-74
2020/12/19 06:13:02;;;;;;;22.43;15.73;;;8.80;99.90;;;;;;5094607;28;20443;-76
2020/12/19 06:15:41;;;;;;;21.85;15.40;;;8.80;99.90;;;;;;5104360;28;20407;-76
2020/12/19 06:18:15;;;;;;;20.90;15.13;;;8.80;99.90;;;;;;5098976;28;20753;-76
2020/12/19 06:20:43;;;;;;;22.55;15.40;;;8.90;99.90;;;;;;5078764;28;20425;-74
2020/12/19 06:23:14;;;;;;;21.85;15.10;;;8.90;99.90;;;;;;5091093;28;20432;-74
2020/12/19 06:25:42;;;;;;;21.33;15.02;;;8.90;99.90;;;;;;5089872;28;20471;-75
2020/12/19 06:28:10;;;;;;;18.98;14.50;;;8.90;99.90;;;;;;5099086;28;20424;-75
2020/12/19 06:30:37;;;;;;;18.63;14.13;;;8.90;99.90;;;;;;5069612;28;20426;-75
2020/12/19 06:33:11;;;;;;;19.92;14.50;;;8.90;99.90;;;;;;5100610;28;20436;-75
2020/12/19 06:35:37;;;;;;;23.52;13.32;;;8.90;99.90;;;;;;5101713;28;20330;-75
2020/12/19 06:38:05;;;;;;;23.58;13.68;;;8.60;99.90;;;;;;5107491;28;20206;-76
2020/12/19 06:40:38;;;;;;;20.90;14.75;;;8.40;99.90;;;;;;5091422;28;20890;-75
2020/12/19 06:43:12;;;;;;;22.75;14.95;;;8.50;99.90;;;;;;5103536;28;20461;-74
2020/12/19 06:45:39;;;;;;;21.97;15.30;;;8.70;99.90;;;;;;5098930;28;20432;-75
2020/12/19 06:48:29;;;;;;;21.17;14.82;;;8.80;99.90;;;;;;5087609;28;20426;-78
2020/12/19 06:51:00;;;;;;;21.08;14.43;;;8.80;99.90;;;;;;5099280;28;20440;-75
2020/12/19 06:53:29;;;;;;;21.38;15.00;;;8.80;99.90;;;;;;5093900;28;20417;-75
2020/12/19 06:56:26;;;;;;;21.95;15.32;;;8.80;99.90;;;;;;5098170;28;20450;-76
2020/12/19 06:59:01;;;;;;;20.80;14.40;;;8.90;99.90;;;;;;5091589;28;20433;-75
2020/12/19 07:01:30;;;;;;;20.27;14.35;;;8.80;99.90;;;;;;5077301;28;20417;-76
2020/12/19 07:04:01;;;;;;;21.08;14.90;;;8.90;99.90;;;;;;5097640;28;20495;-75
2020/12/19 07:06:30;;;;;;;22.15;14.65;;;8.90;99.90;;;;;;5095403;28;20413;-75
2020/12/19 07:09:03;;;;;;;21.35;14.82;;;8.90;99.90;;;;;;5096034;28;20580;-74
2020/12/19 07:11:47;;;;;;;20.60;14.68;;;8.90;99.90;;;;;;5093876;28;20445;-77
2020/12/19 07:14:15;;;;;;;23.80;15.45;;;9.00;99.90;;;;;;5099073;28;20490;-75
2020/12/19 07:16:49;;;;;;;20.83;15.05;;;9.00;99.90;;;;;;5098657;28;20437;-75
2020/12/19 07:19:24;;;;;;;22.98;15.57;;;8.90;99.90;;;;;;5096691;28;20421;-75
2020/12/19 07:21:52;;;;;;;23.10;13.85;;;8.90;99.90;;;;;;5078575;28;20221;-76
2020/12/19 07:24:20;;;;;;;22.00;12.88;;;8.60;99.90;;;;;;5095347;28;20670;-77
2020/12/19 07:26:55;;;;;;;23.70;16.20;;;8.40;99.90;;;;;;5092867;28;20417;-75
2020/12/19 07:29:25;;;;;;;22.83;15.98;;;8.50;99.90;;;;;;5101435;28;20527;-76
2020/12/19 07:31:53;;;;;;;22.33;15.60;;;8.70;99.90;;;;;;5079100;28;20422;-76
2020/12/19 07:37:04;;;;;;;24.15;15.88;;;8.90;99.90;;;;;;5081344;28;20460;-78
2020/12/19 07:39:31;;;;;;;24.38;16.25;;;9.00;99.90;;;;;;5099764;28;20425;-77
2020/12/19 07:42:04;;;;;;;26.17;16.83;;;9.00;99.90;;;;;;5095512;28;20413;-77
2020/12/19 07:44:31;;;;;;;22.92;14.63;;;9.00;99.90;;;;;;5095291;28;20202;-78
2020/12/19 07:47:01;;;;;;;25.05;16.30;;;8.70;99.90;;;;;;5096487;28;20409;-76
2020/12/19 07:49:44;;;;;;;26.30;17.02;;;8.80;99.90;;;;;;5097127;28;20449;-76
2020/12/19 07:52:26;;;;;;;24.95;16.75;;;8.90;99.90;;;;;;5078456;28;20944;-78
2020/12/19 07:55:20;;;;;;;25.92;17.15;;;9.00;99.90;;;;;;5082078;28;20482;-75
2020/12/19 07:57:53;;;;;;;24.98;17.13;;;9.00;99.90;;;;;;5094821;28;20487;-79
2020/12/19 08:00:19;;;;;;;24.60;16.55;;;9.10;99.90;;;;;;5075346;28;20408;-76
2020/12/19 08:02:46;;;;;;;24.27;16.77;;;9.10;99.90;;;;;;5075183;28;20807;-77
2020/12/19 08:05:12;;;;;;;25.17;17.35;;;9.10;99.90;;;;;;5079445;28;20428;-79
2020/12/19 08:07:39;;;;;;;26.60;17.58;;;9.10;99.90;;;;;;5093181;28;20431;-79
2020/12/19 08:10:06;;;;;;;24.27;16.98;;;9.10;99.90;;;;;;5075422;28;20423;-79
2020/12/19 08:12:34;;;;;;;25.45;17.33;;;9.10;99.90;;;;;;5073171;28;20494;-75
2020/12/19 08:15:03;;;;;;;25.20;17.08;;;9.20;99.90;;;;;;5076853;28;20411;-78
2020/12/19 08:17:31;;;;;;;25.17;17.15;;;9.20;99.90;;;;;;5077400;28;20469;-79
2020/12/19 08:19:59;;;;;;;26.60;17.93;;;9.20;99.90;;;;;;5077639;28;20416;-76
2020/12/19 08:22:27;;;;;;;26.90;17.80;;;9.20;99.90;;;;;;5071867;28;21177;-78
2020/12/19 08:24:54;;;;;;;25.05;17.25;;;9.20;99.90;;;;;;5075234;28;20485;-77
2020/12/19 08:27:45;;;;;;;24.95;17.70;;;9.30;99.90;;;;;;5073690;28;20457;-77
2020/12/19 08:30:22;;;;;;;26.80;17.50;;;9.30;99.90;;;;;;5076101;28;20942;-77
2020/12/19 08:32:51;;;;;;;24.83;17.10;;;9.30;99.90;;;;;;5086018;28;23411;-77
2020/12/19 08:35:19;;;;;;;26.70;17.63;;;9.30;99.90;;;;;;5069251;28;20425;-77
2020/12/19 08:37:46;;;;;;;26.35;17.55;;;9.40;99.90;;;;;;5070458;28;20855;-76
2020/12/19 08:43:16;;;;;;;26.58;17.33;;;9.50;99.90;;;;;;5074510;28;20425;-77
2020/12/19 08:45:44;;;;;;;24.63;16.83;;;9.50;99.90;;;;;;5089146;28;20420;-77
2020/12/19 08:48:19;;;;;;;27.52;18.02;;;9.60;99.90;;;;;;5083821;28;20889;-77
2020/12/19 08:50:47;;;;;;;28.20;17.95;;;9.60;99.90;;;;;;5068749;28;20431;-76
2020/12/19 08:53:31;;;;;;;25.00;17.08;;;9.60;99.90;;;;;;5091788;28;20418;-77
2020/12/19 08:56:13;;;;;;;24.05;16.70;;;9.70;99.90;;;;;;5087742;28;20512;-77
2020/12/19 08:58:53;;;;;;;25.55;16.65;;;9.70;99.90;;;;;;5080162;28;20440;-80
2020/12/19 09:01:20;;;;;;;23.17;16.70;;;9.80;99.90;;;;;;5072584;28;20497;-77
2020/12/19 09:03:46;;;;;;;22.67;16.40;;;9.80;99.90;;;;;;5084039;28;20437;-77
2020/12/19 09:06:14;;;;;;;25.17;16.85;;;9.80;99.90;;;;;;5078487;28;20410;-78
2020/12/19 09:08:42;;;;;;;24.95;16.48;;;9.90;99.90;;;;;;5069024;28;20439;-76
2020/12/19 09:11:10;;;;;;;25.38;16.70;;;10.00;99.90;;;;;;5089555;28;20478;-77
2020/12/19 09:13:37;;;;;;;26.08;16.67;;;10.00;99.90;;;;;;5081344;28;20482;-76
2020/12/19 09:16:06;;;;;;;25.27;16.33;;;10.00;99.90;;;;;;5070904;28;20907;-76
2020/12/19 09:18:34;;;;;;;24.00;16.08;;;10.10;99.90;;;;;;5072048;28;20426;-76
2020/12/19 09:21:10;;;;;;;24.00;16.23;;;10.10;99.90;;;;;;5085064;28;20416;-77
2020/12/19 09:23:37;;;;;;;23.50;16.25;;;10.10;99.90;;;;;;5073558;28;20488;-77
2020/12/19 09:26:05;;;;;;;24.08;16.30;;;10.20;99.90;;;;;;5069629;28;20427;-78
2020/12/19 09:28:32;;;;;;;23.08;16.38;;;10.20;99.90;;;;;;5075223;28;20423;-77
2020/12/19 09:30:59;;;;;;;23.27;15.73;;;10.20;99.90;;;;;;5067828;28;20498;-76
2020/12/19 09:33:26;;;;;;;22.00;15.73;;;10.30;99.90;;;;;;5075979;28;20454;-75
2020/12/19 09:35:53;;;;;;;24.95;16.33;;;10.30;99.90;;;;;;5087675;28;20436;-76
2020/12/19 09:38:20;;;;;;;22.27;15.50;;;10.30;99.90;;;;;;5073990;28;21001;-75
2020/12/19 09:40:46;;;;;;;22.55;15.55;;;10.30;99.90;;;;;;5079553;28;20434;-76
2020/12/19 09:43:13;;;;;;;22.65;15.68;;;10.40;99.90;;;;;;5079647;28;20508;-77
2020/12/19 09:45:39;;;;;;;23.25;15.85;;;10.40;99.90;;;;;;5075174;28;20460;-78
2020/12/19 09:48:06;;;;;;;23.45;15.57;;;10.40;99.90;;;;;;5078596;28;20419;-77
2020/12/19 09:50:34;;;;;;;25.13;16.42;;;10.50;99.90;;;;;;5069221;28;20431;-77
2020/12/19 09:53:01;;;;;;;22.65;14.98;;;10.50;99.90;;;;;;5071514;28;20418;-76
2020/12/19 09:55:28;;;;;;;22.58;15.05;;;10.50;99.90;;;;;;5086614;28;20506;-77
2020/12/19 09:57:55;;;;;;;22.57;15.30;;;10.60;99.90;;;;;;5071098;28;20436;-78
2020/12/19 10:00:22;;;;;;;21.88;15.27;;;10.60;99.90;;;;;;5079249;28;20418;-76
2020/12/19 10:02:50;;;;;;;22.33;14.90;;;10.60;99.90;;;;;;5088735;28;20483;-77
2020/12/19 10:05:17;;;;;;;20.67;15.00;;;10.70;99.90;;;;;;5100336;28;20424;-77
2020/12/19 10:07:44;;;;;;;22.70;14.93;;;10.70;99.90;;;;;;5090878;28;20437;-74
2020/12/19 10:10:10;;;;;;;22.98;14.75;;;10.70;99.90;;;;;;5075079;28;20425;-77
2020/12/19 10:12:37;;;;;;;23.52;14.70;;;10.70;99.90;;;;;;5081869;28;20416;-76
2020/12/19 10:15:04;;;;;;;22.48;14.88;;;10.70;99.90;;;;;;5081619;28;20423;-76
2020/12/19 10:17:31;;;;;;;21.45;15.10;;;10.70;99.90;;;;;;5079947;28;20903;-76
2020/12/19 10:19:57;;;;;;;23.95;15.30;;;10.80;99.90;;;;;;5093258;28;20421;-76
2020/12/19 10:22:24;;;;;;;22.10;14.73;;;10.80;99.90;;;;;;5081114;28;20407;-74
2020/12/19 10:24:51;;;;;;;21.58;14.32;;;10.80;99.90;;;;;;5090140;28;20527;-77
2020/12/19 10:27:17;;;;;;;20.80;14.40;;;10.80;99.90;;;;;;5090787;28;20421;-75
2020/12/19 10:29:44;;;;;;;19.38;14.00;;;10.90;99.90;;;;;;5086982;28;20429;-75
2020/12/19 10:32:12;;;;;;;20.92;14.27;;;10.90;99.90;;;;;;5092291;28;20413;-75
2020/12/19 10:34:39;;;;;;;21.25;14.30;;;11.00;99.90;;;;;;5090782;28;20456;-76
2020/12/19 10:37:05;;;;;;;19.00;13.63;;;11.00;99.90;;;;;;5092697;28;20469;-77
2020/12/19 10:39:32;;;;;;;19.58;13.70;;;11.00;99.90;;;;;;5088395;28;20424;-77
2020/12/19 10:41:59;;;;;;;18.08;13.10;;;11.10;99.90;;;;;;5092852;28;20413;-77
2020/12/19 10:44:25;;;;;;;19.45;13.35;;;11.20;99.90;;;;;;5091034;28;20781;-88
2020/12/19 10:46:52;;;;;;;20.83;13.65;;;11.30;99.90;;;;;;5075091;28;20415;-79
2020/12/19 10:49:18;;;;;;;21.27;13.40;;;11.40;99.90;;;;;;5079060;28;20935;-79
2020/12/19 10:51:45;;;;;;;16.33;12.65;;;11.50;99.90;;;;;;5072616;28;20549;-78
2020/12/19 10:54:16;;;;;;;17.80;12.57;;;11.60;99.90;;;;;;5089670;28;20422;-77
2020/12/19 10:57:03;;;;;;;19.13;12.80;;;11.60;99.90;;;;;;5080945;28;21014;-78
2020/12/19 10:59:33;;;;;;;18.73;12.63;;;11.70;99.90;;;;;;5071459;28;20442;-80
2020/12/19 11:01:59;;;;;;;21.15;12.10;;;11.70;99.90;;;;;;5080929;28;20847;-79
2020/12/19 11:04:51;;;;;;;16.00;11.75;;;11.70;99.90;;;;;;5088351;28;20774;-79
2020/12/19 11:07:18;;;;;;;20.27;12.30;;;11.80;99.90;;;;;;5083674;28;20831;-78
2020/12/19 11:09:44;;;;;;;20.63;12.45;;;11.90;99.90;;;;;;5078110;28;20983;-76
2020/12/19 11:12:10;;;;;;;19.58;11.85;;;11.90;99.90;;;;;;5112168;28;20417;-79
2020/12/19 11:14:37;;;;;;;20.65;12.73;;;11.90;99.90;;;;;;5109611;28;20912;-78
2020/12/19 11:17:04;;;;;;;19.13;12.13;;;12.00;99.90;;;;;;5094726;28;20408;-78
2020/12/19 11:19:30;;;;;;;18.50;11.57;;;12.00;99.90;;;;;;5088102;28;20425;-79
2020/12/19 11:21:56;;;;;;;16.05;11.00;;;12.00;99.90;;;;;;5095212;28;20762;-79
2020/12/19 11:24:23;;;;;;;17.33;11.45;;;12.00;99.90;;;;;;5105812;28;20503;-80
2020/12/19 11:26:50;;;;;;;18.33;11.30;;;12.00;99.90;;;;;;5103775;28;20473;-78
2020/12/19 11:29:16;;;;;;;17.95;11.45;;;12.00;99.90;;;;;;5105279;28;20413;-80
2020/12/19 11:31:43;;;;;;;18.33;11.75;;;12.00;99.90;;;;;;5102077;28;20419;-75
2020/12/19 11:34:12;;;;;;;14.98;10.60;;;12.00;99.90;;;;;;5104735;28;20852;-82
2020/12/19 11:36:39;;;;;;;15.00;10.35;;;12.00;99.90;;;;;;5087364;28;20414;-79
2020/12/19 11:39:11;;;;;;;17.05;10.35;;;12.00;99.90;;;;;;5097893;28;20467;-78
2020/12/19 11:41:38;;;;;;;14.05;9.50;;;11.90;99.90;;;;;;5101148;28;20493;-79
2020/12/19 11:44:04;;;;;;;13.23;9.30;;;12.00;99.90;;;;;;5102401;28;20425;-78
2020/12/19 11:46:31;;;;;;;15.07;9.60;;;12.00;99.90;;;;;;5094075;28;20496;-79
2020/12/19 11:48:58;;;;;;;13.10;8.57;;;12.00;99.90;;;;;;5103449;28;20432;-79
2020/12/19 11:51:29;;;;;;;14.40;8.50;;;12.00;99.90;;;;;;5101979;28;20421;-78
2020/12/19 11:53:55;;;;;;;14.02;8.07;;;12.10;99.90;;;;;;5099515;28;20422;-77
2020/12/19 11:56:22;;;;;;;13.48;8.13;;;12.10;99.90;;;;;;5084499;28;20411;-77
2020/12/19 11:58:48;;;;;;;12.65;8.02;;;12.10;99.60;;;;;;5087016;28;20857;-76
2020/12/19 12:01:14;;;;;;;14.02;7.78;;;12.10;99.60;;;;;;5113161;28;20404;-80
2020/12/19 12:03:41;;;;;;;13.40;7.57;;;12.10;99.50;;;;;;5079051;28;20418;-78
2020/12/19 12:06:08;;;;;;;12.43;7.40;;;12.20;99.40;;;;;;5093618;28;20477;-77
2020/12/19 12:08:34;;;;;;;12.50;7.10;;;12.20;99.40;;;;;;5086222;28;20424;-76
2020/12/19 12:11:01;;;;;;;11.25;7.10;;;12.20;99.30;;;;;;5082298;28;20461;-81
2020/12/19 12:13:27;;;;;;;11.60;6.80;;;12.20;99.60;;;;;;5109766;28;20427;-80
2020/12/19 12:15:53;;;;;;;11.73;7.30;;;12.30;99.20;;;;;;5107449;28;20412;-78
2020/12/19 12:18:20;;;;;;;11.63;7.20;;;12.20;99.10;;;;;;5085994;28;20475;-79
2020/12/19 12:20:46;;;;;;;14.30;7.80;;;12.30;99.10;;;;;;5097382;28;20409;-77
2020/12/19 12:23:13;;;;;;;11.60;6.80;;;12.30;99.00;;;;;;5091610;28;20428;-77
2020/12/19 12:25:40;;;;;;;11.93;7.23;;;12.30;99.00;;;;;;5112214;28;20841;-76
2020/12/19 12:28:06;;;;;;;11.50;7.05;;;12.30;98.90;;;;;;5098781;28;20429;-76
2020/12/19 12:30:33;;;;;;;13.43;6.70;;;12.40;98.90;;;;;;5109435;28;20926;-75
2020/12/19 12:32:59;;;;;;;10.47;6.50;;;12.40;98.70;;;;;;5110854;28;20482;-78
2020/12/19 12:35:26;;;;;;;10.87;6.70;;;12.40;98.70;;;;;;5101132;28;20421;-75
2020/12/19 12:37:52;;;;;;;11.27;6.78;;;12.40;98.70;;;;;;5077262;28;20552;-78
2020/12/19 12:40:19;;;;;;;10.98;6.78;;;12.40;98.80;;;;;;5094971;28;20509;-76
2020/12/19 12:42:46;;;;;;;11.63;7.10;;;12.40;99.40;;;;;;5096478;28;20428;-77
2020/12/19 12:45:12;;;;;;;11.23;7.93;;;12.40;99.90;;;;;;5092780;28;20420;-77
2020/12/19 12:47:39;;;;;;;12.98;8.35;;;12.40;99.90;;;;;;5109939;28;20420;-75